Flight Track Log - Related Links

Times and Time Zones

All times are in EDT time to prevent confusion due to time zone crossing. See the SWR971 flight status page for this flight to view local times or setup timezone preferences in your user account.

Time Position Orientation Groundspeed Altitude Reporting Facility
EDT Latitude Longitude Course Direction KTS MPH feet Rate Location/Type
Wed 01:23:00 PM 51.4660 12.1660 213° Southwest  Level Estimated
Wed 01:24:00 PM 51.3744 12.0750 212° Southwest  Level Estimated
Wed 01:25:00 PM 51.2827 11.9843 212° Southwest  Level Estimated
Wed 01:26:00 PM 51.1910 11.8940 212° Southwest  Level Estimated
Wed 01:27:00 PM 51.0992 11.8041 212° Southwest  Level Estimated
Wed 01:28:00 PM 51.0073 11.7144 212° Southwest  Level Estimated
Wed 01:29:00 PM 50.9153 11.6252 211° Southwest  Level Estimated
Wed 01:30:00 PM 50.8233 11.5363 211° Southwest  Level Estimated
Wed 01:31:00 PM 50.7312 11.4478 211° Southwest  Level Estimated
Wed 01:32:00 PM 50.6390 11.3596 211° Southwest  Level Estimated
Wed 01:33:00 PM 50.5468 11.2717 211° Southwest  Level Estimated
Wed 01:34:00 PM 50.4545 11.1842 211° Southwest  Level Estimated
Wed 01:35:00 PM 50.3621 11.0971 211° Southwest  Level Estimated
Wed 01:36:00 PM 50.2697 11.0103 211° Southwest  Level Estimated
Wed 01:37:00 PM 50.1772 10.9238 211° Southwest  Level Estimated
Wed 01:38:00 PM 50.0847 10.8376 211° Southwest  Level Estimated
Wed 01:39:00 PM 49.9921 10.7518 211° Southwest  Level Estimated
Wed 01:40:00 PM 49.8994 10.6663 211° Southwest  Level Estimated
Wed 01:41:00 PM 49.8067 10.5812 211° Southwest  Level Estimated
Wed 01:42:00 PM 49.7139 10.4963 211° Southwest  Level Estimated
Wed 01:43:00 PM 49.6210 10.4118 211° Southwest  Level Estimated
Wed 01:44:00 PM 49.5281 10.3276 210° Southwest  Level Estimated
Wed 01:45:00 PM 49.4351 10.2437 210° Southwest  Level Estimated
Wed 01:46:00 PM 49.3420 10.1602 210° Southwest  Level Estimated
Wed 01:47:00 PM 49.2489 10.0770 210° Southwest  Level Estimated
Wed 01:48:00 PM 49.1558 9.9940 210° Southwest  Level Estimated
Wed 01:49:00 PM 49.0625 9.9114 210° Southwest  Level Estimated
Wed 01:50:00 PM 48.9693 9.8291 210° Southwest  Level Estimated
Wed 01:51:00 PM 48.8759 9.7471 210° Southwest  Level Estimated
Wed 01:52:00 PM 48.7825 9.6654 210° Southwest  Level Estimated
Wed 01:53:00 PM 48.6891 9.5840 210° Southwest  Level Estimated
Wed 01:54:00 PM 48.5882 9.4966 210° Southwest  Level Estimated
Wed 01:55:00 PM 48.4873 9.4095 210° Southwest  Level Estimated
Wed 01:56:00 PM 48.3863 9.3228 210° Southwest  Level Estimated
Wed 01:57:00 PM 48.2853 9.2364 210° Southwest  Level Estimated
Wed 01:58:00 PM 48.1842 9.1503 210° Southwest  Level Estimated
Wed 01:59:00 PM 48.0830 9.0646 210° Southwest  Level Estimated
Wed 02:00:00 PM 47.9817 8.9792 209° Southwest  Level Estimated
Wed 02:01:00 PM 47.8804 8.8942 209° Southwest  Level Estimated
Wed 02:02:00 PM 47.7810 8.8111 209° Southwest  Level Estimated
Wed 02:03:00 PM 47.6815 8.7283 209° Southwest  Level Estimated
Wed 02:04:00 PM 47.5820 8.6459 209° Southwest  Level Estimated
Wed 02:05:00 PM 47.4824 8.5637 209° Southwest  Level Estimated
Wed 02:06:00 PM 47.4647 8.5492 209° Southwest  Level Estimated
Wed 02:07:00 PM 47.4647 8.5492 315° West  Level Estimated
Wed 02:08:00 PM 47.4647 8.5492 315° West  Level Estimated
Wed 02:09:00 PM 47.4647 8.5492 315° West  Level Estimated
Wed 02:10:00 PM 47.4647 8.5492 315° West  Level Estimated
Wed 02:11:00 PM 47.4647 8.5492 315° West  Level Estimated
Wed 02:12:00 PM 47.4647 8.5492 315° West  Level Estimated
Wed 02:13:00 PM 47.4647 8.5492 315° West  Level Estimated
Wed 02:14:00 PM 47.4647 8.5492 315° West  Level Estimated
Wed 02:15:00 PM 47.4647 8.5492 315° West  Level Estimated
Wed 02:16:00 PM 47.4647 8.5492 315° West  Level Estimated
Wed 02:17:00 PM 47.4647 8.5492 315° West  Level Estimated

Login

Don't have an account? Register now (free) for customized features, flight alerts, and more!